Time;durP1;ratioP1;P1;durP2;ratioP2;P2;SDS_P1;SDS_P2;PMS_P1;PMS_P2;Temp;Humidity;BMP_temperature;BMP_pressure;BME280_temperature;BME280_humidity;BME280_pressure;Samples;Min_cycle;Max_cycle;Signal;HPM_P1;HPM_P2
2024/02/12 00:00:27;;;;;;;16.23;2.97;;;10.30;97.90;;;;;;5065312;28;20037;-50
2024/02/12 00:02:53;;;;;;;12.07;2.33;;;10.30;97.90;;;;;;5066065;28;20504;-50
2024/02/12 00:05:21;;;;;;;11.27;2.78;;;10.30;98.00;;;;;;5047639;28;20111;-50
2024/02/12 00:07:47;;;;;;;11.45;2.65;;;10.30;98.00;;;;;;5064898;28;20040;-50
2024/02/12 00:10:13;;;;;;;10.55;2.30;;;10.30;98.00;;;;;;5066169;28;20017;-50
2024/02/12 00:12:42;;;;;;;14.60;3.00;;;10.30;98.00;;;;;;5066074;28;20031;-50
2024/02/12 00:15:08;;;;;;;11.93;3.05;;;10.30;98.00;;;;;;5065001;28;20024;-50
2024/02/12 00:17:36;;;;;;;17.73;2.72;;;10.30;98.00;;;;;;5048263;28;20036;-50
2024/02/12 00:20:06;;;;;;;9.88;2.65;;;10.20;98.00;;;;;;5064644;28;20029;-50
2024/02/12 00:22:33;;;;;;;12.10;2.72;;;10.20;98.00;;;;;;5066153;28;20122;-50
2024/02/12 00:25:00;;;;;;;10.65;2.25;;;10.20;98.00;;;;;;5066056;28;20476;-50
2024/02/12 00:27:27;;;;;;;8.80;2.53;;;10.20;98.10;;;;;;5065725;28;20029;-50
2024/02/12 00:29:52;;;;;;;11.18;2.38;;;10.20;98.10;;;;;;5064654;28;20017;-50
2024/02/12 00:32:20;;;;;;;11.93;2.03;;;10.20;98.20;;;;;;5064549;28;20045;-50
2024/02/12 00:34:46;;;;;;;7.10;1.85;;;10.20;98.20;;;;;;5065925;28;20105;-50
2024/02/12 00:37:13;;;;;;;8.27;2.53;;;10.20;98.20;;;;;;5065751;28;20029;-50
2024/02/12 00:39:38;;;;;;;6.55;2.22;;;10.20;98.30;;;;;;5064881;28;20473;-50
2024/02/12 00:42:08;;;;;;;13.68;2.60;;;10.10;98.30;;;;;;5064756;28;20047;-50
2024/02/12 00:44:37;;;;;;;7.90;2.40;;;10.10;98.30;;;;;;5064678;28;20029;-50
2024/02/12 00:47:03;;;;;;;7.60;2.05;;;10.10;98.30;;;;;;5064561;28;20076;-50
2024/02/12 00:49:29;;;;;;;17.10;2.30;;;10.10;98.30;;;;;;5064601;28;20195;-50
2024/02/12 00:51:55;;;;;;;7.22;2.28;;;10.10;98.30;;;;;;5065809;28;20029;-50
2024/02/12 00:54:20;;;;;;;8.65;2.20;;;10.10;98.30;;;;;;5065633;28;20034;-50
2024/02/12 00:56:47;;;;;;;6.63;2.40;;;10.10;98.40;;;;;;5065561;28;20029;-50
2024/02/12 00:59:16;;;;;;;7.20;1.80;;;10.10;98.40;;;;;;5064498;28;20050;-50
2024/02/12 01:01:44;;;;;;;15.10;2.10;;;10.10;98.40;;;;;;5064417;28;20477;-50
2024/02/12 01:04:10;;;;;;;9.45;2.47;;;10.00;98.40;;;;;;5065461;28;20044;-50
2024/02/12 01:06:36;;;;;;;7.18;2.05;;;10.10;98.40;;;;;;5064342;28;20024;-50
2024/02/12 01:09:05;;;;;;;7.32;2.28;;;10.10;98.50;;;;;;5065385;28;20044;-50
2024/02/12 01:11:31;;;;;;;8.32;1.40;;;10.00;98.50;;;;;;5064339;28;20086;-50
2024/02/12 01:14:00;;;;;;;8.68;1.95;;;10.00;98.50;;;;;;5065658;28;20064;-50
2024/02/12 01:16:31;;;;;;;6.90;1.83;;;10.00;98.50;;;;;;5065849;28;20380;-50
2024/02/12 01:18:56;;;;;;;8.40;2.08;;;10.00;98.50;;;;;;5067708;28;20048;-50
2024/02/12 01:21:23;;;;;;;10.48;1.73;;;10.00;98.60;;;;;;5069069;28;20032;-50
2024/02/12 01:23:48;;;;;;;6.05;1.70;;;10.00;98.60;;;;;;5069051;28;20028;-50
2024/02/12 01:26:15;;;;;;;6.38;1.83;;;10.00;98.60;;;;;;5068898;28;20025;-49
2024/02/12 01:28:43;;;;;;;4.63;1.80;;;10.00;98.60;;;;;;5068876;28;20037;-50
2024/02/12 01:31:17;;;;;;;5.70;1.90;;;10.00;98.60;;;;;;5069050;28;20109;-50
2024/02/12 01:33:44;;;;;;;5.93;1.55;;;10.00;98.50;;;;;;5067616;28;20032;-50
2024/02/12 01:36:11;;;;;;;8.85;2.25;;;10.00;98.60;;;;;;5068654;28;20037;-50
2024/02/12 01:38:38;;;;;;;7.10;1.83;;;10.00;98.60;;;;;;5067599;28;20047;-50
2024/02/12 01:41:03;;;;;;;6.88;1.70;;;10.00;98.60;;;;;;5067667;28;20048;-50
2024/02/12 01:43:32;;;;;;;6.28;1.65;;;10.00;98.70;;;;;;5067389;28;20469;-50
2024/02/12 01:45:59;;;;;;;12.25;1.55;;;9.90;98.70;;;;;;5068389;28;20056;-50
2024/02/12 01:48:25;;;;;;;5.45;1.52;;;9.90;98.70;;;;;;5068547;28;20041;-50
2024/02/12 01:50:51;;;;;;;4.25;1.42;;;9.90;98.70;;;;;;5067178;28;20021;-50
2024/02/12 01:53:16;;;;;;;7.00;1.58;;;9.90;98.70;;;;;;5067096;28;20029;-50
2024/02/12 01:55:45;;;;;;;8.93;1.30;;;9.90;98.70;;;;;;5067102;28;20053;-50
2024/02/12 01:58:11;;;;;;;6.65;1.98;;;9.90;98.70;;;;;;5067198;28;20033;-50
2024/02/12 02:00:37;;;;;;;6.90;1.75;;;9.90;98.70;;;;;;5068266;28;20036;-49
2024/02/12 02:03:03;;;;;;;3.97;1.13;;;9.90;98.80;;;;;;5067155;28;20040;-49
2024/02/12 02:05:28;;;;;;;4.18;1.63;;;9.90;98.80;;;;;;5068648;28;20025;-50
2024/02/12 02:07:56;;;;;;;3.30;1.27;;;9.80;98.70;;;;;;5066911;28;20043;-50
2024/02/12 02:10:23;;;;;;;5.10;1.55;;;9.80;98.70;;;;;;5066971;28;20017;-49
2024/02/12 02:12:49;;;;;;;4.68;1.42;;;9.80;98.80;;;;;;5066922;28;20029;-50
2024/02/12 02:15:15;;;;;;;4.05;1.30;;;9.80;98.80;;;;;;5066805;28;20021;-50
2024/02/12 02:17:41;;;;;;;5.45;1.63;;;9.80;98.80;;;;;;5066772;28;20029;-50
2024/02/12 02:20:08;;;;;;;3.72;1.30;;;9.80;98.80;;;;;;5066688;28;20058;-50
2024/02/12 02:22:34;;;;;;;4.72;1.67;;;9.80;98.80;;;;;;5049970;28;20112;-50
2024/02/12 02:25:00;;;;;;;5.45;1.45;;;9.80;98.80;;;;;;5068014;28;20033;-50
2024/02/12 02:27:25;;;;;;;5.50;1.58;;;9.80;98.80;;;;;;5066045;28;20031;-50
2024/02/12 02:29:51;;;;;;;4.22;1.08;;;9.80;98.80;;;;;;5068093;28;20013;-50
2024/02/12 02:32:17;;;;;;;5.60;1.40;;;9.80;98.90;;;;;;5066631;28;20077;-50
2024/02/12 02:34:43;;;;;;;3.42;1.20;;;9.80;98.80;;;;;;5067743;28;20029;-50
2024/02/12 02:37:10;;;;;;;2.92;1.55;;;9.80;98.90;;;;;;5066230;28;20033;-50
2024/02/12 02:39:36;;;;;;;5.00;1.63;;;9.80;98.90;;;;;;5066279;28;20056;-50
2024/02/12 02:42:03;;;;;;;4.88;1.48;;;9.80;98.90;;;;;;5067478;28;20048;-50
2024/02/12 02:44:29;;;;;;;3.33;1.20;;;9.80;99.00;;;;;;5066263;28;20048;-50
2024/02/12 02:46:55;;;;;;;4.32;1.30;;;9.70;98.90;;;;;;5066246;28;20029;-50
2024/02/12 02:49:21;;;;;;;2.92;1.15;;;9.80;99.00;;;;;;5066210;28;20033;-50
2024/02/12 02:51:47;;;;;;;4.80;0.98;;;9.70;98.90;;;;;;5067437;28;20051;-50
2024/02/12 02:54:13;;;;;;;1.73;1.00;;;9.80;99.00;;;;;;5067437;28;20051;-50
2024/02/12 02:56:39;;;;;;;5.18;1.20;;;9.80;99.00;;;;;;5067307;28;20060;-50
2024/02/12 02:59:06;;;;;;;7.65;1.38;;;9.70;99.00;;;;;;5067138;28;20029;-50
2024/02/12 03:01:32;;;;;;;3.53;1.17;;;9.70;99.00;;;;;;5066050;28;20025;-49
2024/02/12 03:03:57;;;;;;;1.85;0.70;;;9.70;99.00;;;;;;5065841;28;20063;-50
2024/02/12 03:06:26;;;;;;;5.78;1.50;;;9.70;99.00;;;;;;5067090;28;20054;-50
2024/02/12 03:08:54;;;;;;;4.40;1.30;;;9.70;99.00;;;;;;5065754;28;20116;-50
2024/02/12 03:11:23;;;;;;;1.95;0.85;;;9.70;99.00;;;;;;5049278;28;20446;-50
2024/02/12 03:13:50;;;;;;;1.98;1.20;;;9.70;99.00;;;;;;5065627;28;20041;-50
2024/02/12 03:16:16;;;;;;;2.38;0.95;;;9.70;99.00;;;;;;5066831;28;20516;-50
2024/02/12 03:18:45;;;;;;;2.17;1.17;;;9.70;99.10;;;;;;5065737;28;20037;-50
2024/02/12 03:21:11;;;;;;;1.70;0.88;;;9.70;99.10;;;;;;5066854;28;20090;-50
2024/02/12 03:23:37;;;;;;;8.35;1.40;;;9.70;99.10;;;;;;5065505;28;20119;-50
2024/02/12 03:26:05;;;;;;;3.80;1.10;;;9.60;99.10;;;;;;5066703;28;20068;-50
2024/02/12 03:28:32;;;;;;;3.53;1.08;;;9.60;99.10;;;;;;5065292;28;20039;-49
2024/02/12 03:30:57;;;;;;;5.03;1.30;;;9.60;99.10;;;;;;5065265;28;20017;-50
2024/02/12 03:33:23;;;;;;;5.10;1.25;;;9.60;99.10;;;;;;5065390;28;20055;-50
2024/02/12 03:35:48;;;;;;;2.40;1.10;;;9.60;99.10;;;;;;5065159;28;20017;-50
2024/02/12 03:38:14;;;;;;;2.85;1.00;;;9.60;99.10;;;;;;5066635;28;20033;-50
2024/02/12 03:40:40;;;;;;;4.38;1.23;;;9.60;99.20;;;;;;5064369;28;20029;-50
2024/02/12 03:43:08;;;;;;;3.00;1.20;;;9.60;99.20;;;;;;5066409;28;20032;-50
2024/02/12 03:45:35;;;;;;;3.90;0.70;;;9.60;99.20;;;;;;5066366;28;20032;-50
2024/02/12 03:59:50;;;;;;;2.10;1.08;;;9.60;99.20;;;;;;5064984;28;20040;-50
2024/02/12 04:01:55;;;;;;;2.50;1.17;;;9.50;99.30;;;;;;5057235;28;20465;-50
2024/02/12 04:04:20;;;;;;;3.85;1.00;;;9.50;99.30;;;;;;5066216;28;20044;-50
2024/02/12 04:06:46;;;;;;;1.38;0.88;;;9.50;99.30;;;;;;5066516;28;20061;-49
2024/02/12 04:09:12;;;;;;;2.00;1.10;;;9.50;99.40;;;;;;5064927;28;20021;-50
2024/02/12 04:11:41;;;;;;;2.95;1.00;;;9.50;99.40;;;;;;5065106;28;20025;-50
2024/02/12 04:14:09;;;;;;;2.60;1.10;;;9.50;99.40;;;;;;5065033;28;20029;-50
2024/02/12 04:16:36;;;;;;;1.88;0.80;;;9.50;99.40;;;;;;5064806;28;20481;-50
2024/02/12 04:19:03;;;;;;;1.67;0.80;;;9.50;99.40;;;;;;5066093;28;20052;-50
2024/02/12 04:21:31;;;;;;;2.92;1.10;;;9.50;99.40;;;;;;5066008;28;20370;-49
2024/02/12 04:23:57;;;;;;;2.33;0.82;;;9.50;99.40;;;;;;5064787;28;20033;-50
2024/02/12 04:26:23;;;;;;;5.65;0.85;;;9.50;99.40;;;;;;5066023;28;20041;-50
2024/02/12 04:28:49;;;;;;;1.23;0.70;;;9.50;99.40;;;;;;5064715;28;20033;-50
2024/02/12 04:31:15;;;;;;;2.28;0.70;;;9.50;99.40;;;;;;5064616;28;20025;-50
2024/02/12 04:33:40;;;;;;;5.03;1.08;;;9.50;99.50;;;;;;5065792;28;20059;-50
2024/02/12 04:36:08;;;;;;;3.42;0.93;;;9.50;99.50;;;;;;5064546;28;20116;-50
2024/02/12 04:38:34;;;;;;;2.30;1.00;;;9.50;99.50;;;;;;5066079;28;20044;-50
2024/02/12 04:41:00;;;;;;;2.88;1.08;;;9.50;99.50;;;;;;5064755;28;20025;-50
2024/02/12 04:43:26;;;;;;;1.42;0.90;;;9.50;99.60;;;;;;5064570;28;20039;-50
2024/02/12 04:45:52;;;;;;;0.60;0.40;;;9.50;99.60;;;;;;5065913;28;20121;-50
2024/02/12 04:48:17;;;;;;;3.58;1.00;;;9.50;99.60;;;;;;5065515;28;20087;-50
2024/02/12 04:50:45;;;;;;;2.42;1.05;;;9.50;99.60;;;;;;5048543;28;20027;-50
2024/02/12 04:53:11;;;;;;;2.05;1.00;;;9.50;99.60;;;;;;5051761;28;20059;-50
2024/02/12 04:55:37;;;;;;;2.80;0.90;;;9.50;99.60;;;;;;5069367;28;20033;-50
2024/02/12 04:58:02;;;;;;;2.08;1.20;;;9.50;99.70;;;;;;5051373;28;20037;-50
2024/02/12 05:00:30;;;;;;;1.90;1.00;;;9.50;99.70;;;;;;5069190;28;20037;-50
2024/02/12 05:02:57;;;;;;;2.78;1.00;;;9.50;99.70;;;;;;5069423;28;20150;-50
2024/02/12 05:05:22;;;;;;;4.35;1.13;;;9.50;99.70;;;;;;5069338;28;20469;-50
2024/02/12 05:07:48;;;;;;;2.42;0.90;;;9.50;99.70;;;;;;5069236;28;20071;-50
2024/02/12 05:10:14;;;;;;;2.15;1.17;;;9.50;99.70;;;;;;5069334;28;20433;-50
2024/02/12 05:12:39;;;;;;;1.35;0.73;;;9.50;99.70;;;;;;5069212;28;20033;-50
2024/02/12 05:15:06;;;;;;;1.50;0.70;;;9.50;99.70;;;;;;5067913;28;20025;-50
2024/02/12 05:17:52;;;;;;;2.45;0.85;;;9.50;99.70;;;;;;5069294;28;20020;-49
2024/02/12 05:23:01;;;;;;;1.35;0.60;;;9.50;99.70;;;;;;5068061;28;20129;-50
2024/02/12 05:25:26;;;;;;;3.88;0.85;;;9.50;99.70;;;;;;5069055;28;20021;-50
2024/02/12 05:27:52;;;;;;;2.60;1.00;;;9.50;99.70;;;;;;5050944;28;20078;-50
2024/02/12 05:30:18;;;;;;;3.38;0.95;;;9.50;99.70;;;;;;5067736;28;20021;-50
2024/02/12 05:32:43;;;;;;;0.93;0.70;;;9.50;99.70;;;;;;5067599;28;20064;-50
2024/02/12 05:35:09;;;;;;;1.95;0.90;;;9.50;99.70;;;;;;5067626;28;20035;-50
2024/02/12 05:37:35;;;;;;;1.52;0.90;;;9.50;99.60;;;;;;5068577;28;20045;-50
2024/02/12 05:40:01;;;;;;;1.75;0.95;;;9.50;99.60;;;;;;5067424;28;20051;-50
2024/02/12 05:42:27;;;;;;;1.33;0.70;;;9.50;99.60;;;;;;5067247;28;20025;-49
2024/02/12 05:44:54;;;;;;;1.75;0.90;;;9.50;99.70;;;;;;5066854;28;20033;-50
2024/02/12 05:47:20;;;;;;;3.13;1.10;;;9.50;99.70;;;;;;5068229;28;20052;-50
2024/02/12 05:49:46;;;;;;;0.65;0.50;;;9.50;99.90;;;;;;5066165;28;20025;-50
2024/02/12 05:52:12;;;;;;;3.08;1.00;;;9.50;99.80;;;;;;5067387;28;20488;-50
2024/02/12 05:54:37;;;;;;;1.67;0.95;;;9.50;99.80;;;;;;5067392;28;20025;-50
2024/02/12 05:57:04;;;;;;;3.25;0.95;;;9.50;99.70;;;;;;5050582;28;20025;-50
2024/02/12 05:59:32;;;;;;;7.63;1.33;;;9.50;99.70;;;;;;5068419;28;20051;-50
2024/02/12 06:02:00;;;;;;;12.65;1.70;;;9.50;99.80;;;;;;5066489;28;20028;-50
2024/02/12 06:04:25;;;;;;;9.68;2.05;;;9.50;99.80;;;;;;5066538;28;20037;-50
2024/02/12 06:06:51;;;;;;;17.60;2.08;;;9.50;99.80;;;;;;5050261;28;20028;-50
2024/02/12 06:09:17;;;;;;;17.55;2.20;;;9.50;99.80;;;;;;5068280;28;20063;-50
2024/02/12 06:11:43;;;;;;;16.88;2.75;;;9.50;99.90;;;;;;5066539;28;20027;-49
2024/02/12 06:14:08;;;;;;;20.05;3.42;;;9.50;99.90;;;;;;5068448;28;20096;-50
2024/02/12 06:16:35;;;;;;;15.43;2.03;;;9.50;99.90;;;;;;5050320;28;20070;-50
2024/02/12 06:19:01;;;;;;;18.58;2.95;;;9.50;99.90;;;;;;5068015;28;20029;-50
2024/02/12 06:21:27;;;;;;;30.25;3.38;;;9.50;99.90;;;;;;5068050;28;20033;-50
2024/02/12 06:23:53;;;;;;;19.83;2.33;;;9.50;99.90;;;;;;5066586;28;20125;-50
2024/02/12 06:26:19;;;;;;;16.02;3.13;;;9.50;99.90;;;;;;5049742;28;20033;-50
2024/02/12 06:28:46;;;;;;;18.60;3.10;;;9.50;99.90;;;;;;5066364;28;20039;-50
2024/02/12 06:31:14;;;;;;;28.52;3.90;;;9.50;99.90;;;;;;5066389;28;20014;-50
2024/02/12 06:33:40;;;;;;;53.92;6.55;;;9.50;99.90;;;;;;5050185;28;20389;-50
2024/02/12 06:36:05;;;;;;;33.95;4.55;;;9.50;99.90;;;;;;5066192;28;20035;-50
2024/02/12 06:38:31;;;;;;;32.78;5.05;;;9.50;99.90;;;;;;5066130;28;20037;-50
2024/02/12 06:40:58;;;;;;;31.15;4.40;;;9.50;99.90;;;;;;5066258;28;20021;-50
2024/02/12 06:43:24;;;;;;;34.47;4.85;;;9.50;99.90;;;;;;5066176;28;20036;-50
2024/02/12 06:45:50;;;;;;;33.42;4.78;;;9.60;99.90;;;;;;5067417;28;20029;-50
2024/02/12 06:48:15;;;;;;;41.83;4.85;;;9.50;99.90;;;;;;5065931;28;20064;-50
2024/02/12 06:50:41;;;;;;;42.88;4.20;;;9.60;99.90;;;;;;5066132;28;20051;-50
2024/02/12 06:53:07;;;;;;;21.42;3.75;;;9.60;99.90;;;;;;5065906;28;20089;-50
2024/02/12 06:55:33;;;;;;;31.70;4.97;;;9.50;99.90;;;;;;5065799;28;20037;-50
2024/02/12 06:57:59;;;;;;;34.95;4.38;;;9.60;99.90;;;;;;5066865;28;20033;-50
2024/02/12 07:00:25;;;;;;;43.42;5.78;;;9.50;99.90;;;;;;5065896;28;20021;-50
2024/02/12 07:02:50;;;;;;;29.80;4.57;;;9.50;99.90;;;;;;5066007;28;20041;-50
2024/02/12 07:05:17;;;;;;;26.42;4.38;;;9.60;99.90;;;;;;5066138;28;20076;-50
2024/02/12 07:07:43;;;;;;;27.88;4.10;;;9.60;99.90;;;;;;5066894;28;20036;-50
2024/02/12 07:10:09;;;;;;;26.70;4.57;;;9.60;99.90;;;;;;5049045;28;20095;-50
2024/02/12 07:12:35;;;;;;;24.08;3.90;;;9.60;99.90;;;;;;5066706;28;20113;-50
2024/02/12 07:15:02;;;;;;;21.77;4.13;;;9.60;99.90;;;;;;5049076;28;20024;-50
2024/02/12 07:17:28;;;;;;;25.55;4.28;;;9.60;99.90;;;;;;5066590;28;20342;-50
2024/02/12 07:19:53;;;;;;;27.48;4.05;;;9.60;99.90;;;;;;5065538;28;20029;-50
2024/02/12 07:22:21;;;;;;;23.65;4.40;;;9.50;99.90;;;;;;5065163;28;20041;-50
2024/02/12 07:24:49;;;;;;;35.28;5.15;;;9.60;99.90;;;;;;5049257;28;20085;-50
2024/02/12 07:27:21;;;;;;;30.35;4.45;;;9.60;99.90;;;;;;5065361;28;20021;-50
2024/02/12 07:29:47;;;;;;;25.45;4.03;;;9.60;99.90;;;;;;5065409;28;20385;-50
2024/02/12 07:32:13;;;;;;;23.23;3.60;;;9.60;99.90;;;;;;5065137;28;20025;-50
2024/02/12 07:34:38;;;;;;;19.80;4.22;;;9.60;99.90;;;;;;5065229;28;20044;-50
2024/02/12 07:37:04;;;;;;;23.63;4.13;;;9.60;99.90;;;;;;5065016;28;20028;-50
2024/02/12 07:39:30;;;;;;;25.73;4.82;;;9.60;99.90;;;;;;5064557;28;20032;-49
2024/02/12 07:42:05;;;;;;;19.45;3.72;;;9.70;99.90;;;;;;5063045;28;20033;-50
2024/02/12 07:44:30;;;;;;;18.00;4.00;;;9.60;99.90;;;;;;5065801;28;20504;-50
2024/02/12 07:46:57;;;;;;;14.73;3.03;;;9.60;99.90;;;;;;5066156;28;20021;-50
2024/02/12 07:49:22;;;;;;;17.10;3.03;;;9.60;99.90;;;;;;5066222;28;20037;-50
2024/02/12 07:51:48;;;;;;;17.52;3.78;;;9.60;99.90;;;;;;5072321;28;20021;-50
2024/02/12 07:54:14;;;;;;;15.77;3.47;;;9.60;99.90;;;;;;5064772;28;20069;-50
2024/02/12 07:56:43;;;;;;;20.58;3.15;;;9.60;99.90;;;;;;5065115;28;20039;-50
2024/02/12 07:59:09;;;;;;;11.07;2.60;;;9.60;99.90;;;;;;5044467;28;20097;-50
2024/02/12 08:01:35;;;;;;;20.02;3.03;;;9.60;99.90;;;;;;5057566;28;20049;-50
2024/02/12 08:04:00;;;;;;;20.02;4.03;;;9.60;99.90;;;;;;5063725;28;20029;-50
2024/02/12 08:06:26;;;;;;;13.43;3.45;;;9.60;99.90;;;;;;5065919;28;20500;-50
2024/02/12 08:08:51;;;;;;;17.38;3.63;;;9.60;99.90;;;;;;5066071;28;20092;-50
2024/02/12 08:11:20;;;;;;;9.57;3.30;;;9.60;99.90;;;;;;5064841;28;20033;-50
2024/02/12 08:13:45;;;;;;;20.00;4.05;;;9.70;99.90;;;;;;5066048;28;20044;-50
2024/02/12 08:16:11;;;;;;;19.08;3.63;;;9.70;99.90;;;;;;5063683;28;20017;-50
2024/02/12 08:18:37;;;;;;;20.63;4.07;;;9.60;99.90;;;;;;5044833;28;20109;-50
2024/02/12 08:21:03;;;;;;;21.48;3.67;;;9.70;99.90;;;;;;5060255;28;20032;-50
2024/02/12 08:23:28;;;;;;;23.27;3.83;;;9.70;99.90;;;;;;5051694;28;20097;-50
2024/02/12 08:25:54;;;;;;;33.42;5.45;;;9.70;99.90;;;;;;5063150;28;20040;-50
2024/02/12 08:28:24;;;;;;;27.92;4.00;;;9.70;99.90;;;;;;5064808;28;20064;-50
2024/02/12 08:30:50;;;;;;;20.25;5.28;;;9.70;99.90;;;;;;5052648;28;20367;-50
2024/02/12 08:33:16;;;;;;;26.92;3.78;;;9.70;99.90;;;;;;5067275;28;20031;-50
2024/02/12 08:35:41;;;;;;;24.08;3.47;;;9.70;99.90;;;;;;5065547;28;20049;-50
2024/02/12 08:38:09;;;;;;;20.10;4.00;;;9.80;99.90;;;;;;5065386;28;20032;-50
2024/02/12 08:40:38;;;;;;;17.75;3.45;;;9.80;99.90;;;;;;5063934;28;20146;-50
2024/02/12 08:43:04;;;;;;;40.47;5.80;;;9.80;99.90;;;;;;5058020;28;20032;-50
2024/02/12 08:45:29;;;;;;;48.25;5.47;;;9.80;99.90;;;;;;5047977;28;20018;-50
2024/02/12 08:47:55;;;;;;;75.97;6.50;;;9.80;99.90;;;;;;5062123;28;20067;-50
2024/02/12 08:50:21;;;;;;;48.22;7.20;;;9.80;99.90;;;;;;5072888;28;20025;-50
2024/02/12 08:52:47;;;;;;;45.95;5.53;;;9.80;99.90;;;;;;5066690;28;20021;-50
2024/02/12 08:55:12;;;;;;;42.92;5.18;;;9.80;99.90;;;;;;5067864;28;20023;-50
2024/02/12 08:57:41;;;;;;;33.45;5.20;;;9.90;99.90;;;;;;5067891;28;20033;-50
2024/02/12 09:00:08;;;;;;;33.30;4.20;;;9.90;99.90;;;;;;5049119;28;20028;-50
2024/02/12 09:02:34;;;;;;;34.75;5.18;;;9.90;99.90;;;;;;5058077;28;20519;-50
2024/02/12 09:05:01;;;;;;;32.67;4.10;;;9.90;99.90;;;;;;5066536;28;20033;-50
2024/02/12 09:07:27;;;;;;;32.85;4.60;;;9.90;99.90;;;;;;5056612;28;20130;-50
2024/02/12 09:09:53;;;;;;;22.83;4.43;;;9.90;99.90;;;;;;5055912;28;20093;-50
2024/02/12 09:12:19;;;;;;;41.95;5.97;;;10.00;99.90;;;;;;5051852;28;20021;-50
2024/02/12 09:14:45;;;;;;;30.25;5.28;;;10.00;99.90;;;;;;5053878;28;20067;-50
2024/02/12 09:17:15;;;;;;;28.90;4.55;;;10.00;99.90;;;;;;5061231;28;20025;-50
2024/02/12 09:19:44;;;;;;;53.40;5.22;;;10.00;99.90;;;;;;5053833;28;20022;-50
2024/02/12 09:22:10;;;;;;;28.70;4.35;;;10.00;99.90;;;;;;5080937;28;20024;-50
2024/02/12 09:24:41;;;;;;;48.28;5.60;;;10.00;99.90;;;;;;5051178;28;20465;-50
2024/02/12 09:27:07;;;;;;;40.50;4.65;;;10.00;99.90;;;;;;5055664;28;20020;-50
2024/02/12 09:29:34;;;;;;;31.23;4.60;;;10.10;99.90;;;;;;5060567;28;20089;-50
2024/02/12 09:32:02;;;;;;;35.47;4.18;;;10.10;99.90;;;;;;5058092;28;20055;-50
2024/02/12 09:34:28;;;;;;;23.17;3.67;;;10.10;99.80;;;;;;5062309;28;20068;-50
2024/02/12 09:36:54;;;;;;;37.38;6.45;;;10.10;99.70;;;;;;5062180;28;20020;-50
2024/02/12 09:39:20;;;;;;;43.30;6.55;;;10.10;99.60;;;;;;5067246;28;20040;-50
2024/02/12 09:41:47;;;;;;;35.13;4.63;;;10.10;99.60;;;;;;5054421;28;20033;-50
2024/02/12 09:44:18;;;;;;;36.90;4.25;;;10.20;99.70;;;;;;5064505;28;20477;-50
2024/02/12 09:46:48;;;;;;;38.95;5.00;;;10.20;99.60;;;;;;5063290;28;20060;-50
2024/02/12 09:49:16;;;;;;;38.25;5.85;;;10.20;99.50;;;;;;5059967;28;20053;-50
2024/02/12 09:51:43;;;;;;;71.05;9.20;;;10.20;99.50;;;;;;5056194;28;20021;-50
2024/02/12 09:54:09;;;;;;;51.53;6.35;;;10.30;99.50;;;;;;5084893;28;20384;-50
2024/02/12 09:56:36;;;;;;;47.10;6.22;;;10.30;99.60;;;;;;5060401;28;20040;-50
2024/02/12 09:59:02;;;;;;;44.28;5.75;;;10.30;99.50;;;;;;5052350;28;20060;-50
2024/02/12 10:01:29;;;;;;;34.60;5.38;;;10.30;99.50;;;;;;5055270;28;20033;-50
2024/02/12 10:03:55;;;;;;;57.15;6.45;;;10.30;99.40;;;;;;5056538;28;20025;-50
2024/02/12 10:06:21;;;;;;;103.50;12.13;;;10.30;99.40;;;;;;5048042;28;20036;-50
2024/02/12 10:08:47;;;;;;;67.65;8.48;;;10.40;99.40;;;;;;5064167;28;20465;-50
2024/02/12 10:11:20;;;;;;;78.40;10.48;;;10.40;99.40;;;;;;5055511;28;20033;-50
2024/02/12 10:13:50;;;;;;;138.30;16.67;;;10.40;99.30;;;;;;5061737;28;20018;-50
2024/02/12 10:16:16;;;;;;;112.32;11.32;;;10.40;99.30;;;;;;5057486;28;20092;-50
2024/02/12 10:18:41;;;;;;;93.47;10.85;;;10.50;99.30;;;;;;5038215;28;20041;-50
2024/02/12 10:21:07;;;;;;;72.43;9.07;;;10.50;99.20;;;;;;5052508;28;20041;-50
2024/02/12 10:23:33;;;;;;;82.13;9.35;;;10.50;99.10;;;;;;5063035;28;20057;-50
2024/02/12 10:25:58;;;;;;;82.22;9.13;;;10.50;99.10;;;;;;5066229;28;20509;-50
2024/02/12 10:28:24;;;;;;;95.18;10.05;;;10.50;99.10;;;;;;5063662;28;20033;-50
2024/02/12 10:30:49;;;;;;;149.15;13.65;;;10.60;99.30;;;;;;5066255;28;20080;-50
2024/02/12 10:33:15;;;;;;;488.60;37.38;;;10.60;99.40;;;;;;5066006;28;20055;-50
2024/02/12 10:35:46;;;;;;;184.55;17.50;;;10.60;99.60;;;;;;5064290;28;20028;-50
2024/02/12 10:38:13;;;;;;;122.13;13.27;;;10.60;99.40;;;;;;5055738;28;20607;-50
2024/02/12 10:41:23;;;;;;;100.55;11.60;;;10.70;99.40;;;;;;5054142;28;20029;-50
2024/02/12 10:43:51;;;;;;;79.30;10.25;;;10.70;99.30;;;;;;5030545;28;20405;-50
2024/02/12 10:46:16;;;;;;;145.65;14.23;;;10.70;99.20;;;;;;5039326;28;20042;-50
2024/02/12 10:48:46;;;;;;;107.93;11.35;;;10.70;99.20;;;;;;5045244;28;20033;-50
2024/02/12 10:51:15;;;;;;;122.53;12.70;;;10.80;99.10;;;;;;5046047;28;20017;-50
2024/02/12 10:53:41;;;;;;;124.30;13.32;;;10.80;99.10;;;;;;5030113;28;20073;-50
2024/02/12 10:56:08;;;;;;;78.35;10.73;;;10.80;99.00;;;;;;5053060;28;20032;-50
2024/02/12 10:58:34;;;;;;;43.15;6.70;;;10.90;99.00;;;;;;5063344;28;20024;-50
2024/02/12 11:01:00;;;;;;;81.60;8.38;;;10.90;98.80;;;;;;5063528;28;20028;-50
2024/02/12 11:03:39;;;;;;;42.22;6.88;;;10.90;98.70;;;;;;5066758;28;20040;-49
2024/02/12 11:06:10;;;;;;;78.38;9.98;;;10.90;99.00;;;;;;5046508;28;20026;-51
2024/02/12 11:08:42;;;;;;;68.53;8.70;;;10.90;98.70;;;;;;5057847;28;20040;-50
2024/02/12 11:11:20;;;;;;;60.63;7.80;;;10.90;98.80;;;;;;5063842;28;20021;-51
2024/02/12 11:13:59;;;;;;;71.63;9.35;;;11.00;98.70;;;;;;5062579;28;20032;-50
2024/02/12 11:16:30;;;;;;;104.63;9.80;;;11.00;98.70;;;;;;5046754;28;20026;-50
2024/02/12 11:19:00;;;;;;;63.80;9.00;;;10.90;98.60;;;;;;5061313;28;20037;-50
2024/02/12 11:21:35;;;;;;;65.90;9.68;;;11.00;98.70;;;;;;5066551;28;20025;-50
2024/02/12 11:24:07;;;;;;;84.55;10.68;;;11.00;98.60;;;;;;5049138;28;20063;-50
2024/02/12 11:26:54;;;;;;;73.13;9.20;;;11.00;98.70;;;;;;5066412;28;20025;-50
2024/02/12 11:29:20;;;;;;;74.70;8.60;;;11.10;99.00;;;;;;5064649;28;20037;-50
2024/02/12 11:31:50;;;;;;;65.57;10.13;;;11.10;99.00;;;;;;5055788;28;20085;-50
2024/02/12 11:34:19;;;;;;;81.80;8.40;;;11.10;99.00;;;;;;5049457;28;20031;-49
2024/02/12 11:36:55;;;;;;;77.22;9.40;;;11.10;98.90;;;;;;5064743;28;20057;-50
2024/02/12 11:39:21;;;;;;;96.80;11.10;;;11.10;98.90;;;;;;5066395;28;20037;-50
2024/02/12 11:41:47;;;;;;;69.05;9.20;;;11.20;99.00;;;;;;5081389;28;20082;-50
2024/02/12 11:44:14;;;;;;;104.55;11.48;;;11.20;99.00;;;;;;5065562;28;20032;-50
2024/02/12 11:46:40;;;;;;;78.03;10.52;;;11.20;99.10;;;;;;5064842;28;20028;-50
2024/02/12 11:49:09;;;;;;;78.05;9.27;;;11.20;99.10;;;;;;5048353;28;20053;-50
2024/02/12 11:51:36;;;;;;;83.10;10.35;;;11.20;99.10;;;;;;5053489;28;20029;-50
2024/02/12 11:54:09;;;;;;;125.68;14.55;;;11.20;99.00;;;;;;5058616;28;20112;-50
2024/02/12 11:56:36;;;;;;;119.47;13.68;;;11.20;99.00;;;;;;5050126;28;20116;-50
2024/02/12 11:59:04;;;;;;;105.20;11.38;;;11.30;99.10;;;;;;5064850;28;20120;-50
2024/02/12 12:01:33;;;;;;;129.52;13.13;;;11.30;99.10;;;;;;5056441;28;20025;-50
2024/02/12 12:03:58;;;;;;;102.43;12.77;;;11.30;99.00;;;;;;5045030;28;20116;-50
2024/02/12 12:06:29;;;;;;;128.43;13.60;;;11.30;99.00;;;;;;5044795;28;20026;-50
2024/02/12 12:08:56;;;;;;;101.43;13.13;;;11.30;99.10;;;;;;5046140;28;20049;-50
2024/02/12 12:11:22;;;;;;;107.00;12.85;;;11.40;99.00;;;;;;5064374;28;20022;-50
2024/02/12 12:13:49;;;;;;;108.15;11.73;;;11.40;99.20;;;;;;5045680;28;20536;-50
2024/02/12 12:16:15;;;;;;;125.50;13.32;;;11.40;98.80;;;;;;5047048;28;20045;-50
2024/02/12 12:18:41;;;;;;;99.70;9.63;;;11.40;98.80;;;;;;5028419;28;20038;-50
2024/02/12 12:21:08;;;;;;;54.42;6.78;;;11.40;98.50;;;;;;5044835;28;20047;-50
2024/02/12 12:23:37;;;;;;;64.03;7.75;;;11.50;98.30;;;;;;5044676;28;20037;-50
2024/02/12 12:26:04;;;;;;;85.55;9.82;;;11.50;98.30;;;;;;5045854;28;20025;-50
2024/02/12 12:28:31;;;;;;;116.95;11.38;;;11.50;98.20;;;;;;5045782;28;20052;-50
2024/02/12 12:30:57;;;;;;;53.72;8.32;;;11.50;98.20;;;;;;5036356;28;20025;-50
2024/02/12 12:33:24;;;;;;;63.53;8.52;;;11.60;98.10;;;;;;5065996;28;20025;-50
2024/02/12 12:35:49;;;;;;;63.80;7.50;;;11.60;97.90;;;;;;5048235;28;20166;-50
2024/02/12 12:38:15;;;;;;;79.90;11.38;;;11.60;97.80;;;;;;5064269;28;20029;-50
2024/02/12 12:40:42;;;;;;;55.63;7.78;;;11.60;97.80;;;;;;5064470;28;20025;-50
2024/02/12 12:43:08;;;;;;;77.60;8.30;;;11.60;97.80;;;;;;5065856;28;20040;-50
2024/02/12 12:45:34;;;;;;;81.47;9.63;;;11.70;97.70;;;;;;5048257;28;20033;-50
2024/02/12 12:48:02;;;;;;;65.07;9.50;;;11.70;97.70;;;;;;5063622;28;20036;-50
2024/02/12 12:50:28;;;;;;;67.68;8.18;;;11.70;97.60;;;;;;5061218;28;20067;-49
2024/02/12 12:52:55;;;;;;;46.75;6.43;;;11.70;97.50;;;;;;5046154;28;20029;-50
2024/02/12 12:55:20;;;;;;;64.55;7.50;;;11.70;97.30;;;;;;5063896;28;20021;-50
2024/02/12 12:57:47;;;;;;;32.38;5.78;;;11.70;97.20;;;;;;5045841;28;20456;-50